createdAt,value
2023-12-22T00:00:38.100Z,97160.80
2023-12-22T00:03:26.287Z,97164.78
2023-12-22T00:05:55.322Z,97158.78
2023-12-22T00:08:24.789Z,97151.80
2023-12-22T00:10:52.952Z,97157.09
2023-12-22T00:13:21.047Z,97152.98
2023-12-22T00:15:49.125Z,97149.30
2023-12-22T00:18:17.275Z,97148.62
2023-12-22T00:20:45.326Z,97140.80
2023-12-22T00:23:13.412Z,97139.21
2023-12-22T00:25:41.625Z,97133.31
2023-12-22T00:28:09.802Z,97137.25
2023-12-22T00:30:37.790Z,97144.54
2023-12-22T00:33:05.947Z,97133.16
2023-12-22T00:35:34.797Z,97142.84
2023-12-22T00:38:03.038Z,97155.23
2023-12-22T00:40:31.150Z,97157.98
2023-12-22T00:42:59.318Z,97174.64
2023-12-22T00:45:27.425Z,97176.29
2023-12-22T00:47:55.591Z,97202.55
2023-12-22T00:50:23.650Z,97248.81
2023-12-22T00:52:51.810Z,97238.86
2023-12-22T00:55:19.869Z,97264.15
2023-12-22T00:57:48.224Z,97254.05
2023-12-22T01:00:16.818Z,97245.07
2023-12-22T01:02:45.228Z,97249.29
2023-12-22T01:05:13.712Z,97247.16
2023-12-22T01:07:42.102Z,97246.73
2023-12-22T01:10:10.485Z,97243.48
2023-12-22T01:12:38.588Z,97242.84
2023-12-22T01:15:07.598Z,97245.27
2023-12-22T01:17:35.878Z,97246.17
2023-12-22T01:20:04.429Z,97237.64
2023-12-22T01:22:34.291Z,97235.52
2023-12-22T01:25:02.592Z,97220.43
2023-12-22T01:27:30.623Z,97235.90
2023-12-22T01:29:58.667Z,97223.78
2023-12-22T01:32:26.799Z,97237.55
2023-12-22T01:34:54.990Z,97251.59
2023-12-22T01:37:24.723Z,97254.24
2023-12-22T01:39:53.373Z,97256.12
2023-12-22T01:42:21.430Z,97254.02
2023-12-22T01:44:49.462Z,97254.38
2023-12-22T01:47:17.771Z,97256.61
2023-12-22T01:49:45.936Z,97248.26
2023-12-22T01:52:14.112Z,97258.27
2023-12-22T01:54:42.536Z,97252.08
2023-12-22T01:57:14.285Z,97263.14
2023-12-22T01:59:42.643Z,97257.98
2023-12-22T02:02:10.701Z,97259.03
2023-12-22T02:04:38.984Z,97254.67
2023-12-22T02:07:10.088Z,97266.08
2023-12-22T02:09:38.574Z,97270.02
2023-12-22T02:12:06.776Z,97266.04
2023-12-22T02:14:37.078Z,97283.96
2023-12-22T02:17:23.541Z,97269.65
2023-12-22T02:19:52.266Z,97273.42
2023-12-22T02:22:20.375Z,97275.90
2023-12-22T02:24:48.370Z,97271.67
2023-12-22T02:27:25.567Z,97276.76
2023-12-22T02:30:15.272Z,97275.67
2023-12-22T02:32:46.134Z,97286.00
2023-12-22T02:35:22.428Z,97279.36
2023-12-22T02:37:52.703Z,97275.68
2023-12-22T02:40:22.729Z,97278.20
2023-12-22T02:42:51.203Z,97282.03
2023-12-22T02:45:20.481Z,97283.27
2023-12-22T02:47:49.390Z,97283.73
2023-12-22T02:50:18.588Z,97285.95
2023-12-22T02:52:46.704Z,97295.13
2023-12-22T02:55:14.982Z,97288.67
2023-12-22T02:57:43.220Z,97291.70
2023-12-22T03:00:12.019Z,97286.41
2023-12-22T03:02:40.394Z,97282.28
2023-12-22T03:05:08.918Z,97278.27
2023-12-22T03:07:37.377Z,97278.30
2023-12-22T03:10:05.871Z,97281.45
2023-12-22T03:12:33.997Z,97292.25
2023-12-22T03:15:02.101Z,97284.48
2023-12-22T03:17:30.213Z,97301.46
2023-12-22T03:19:58.689Z,97294.66
2023-12-22T03:22:26.903Z,97291.53
2023-12-22T03:24:55.120Z,97284.44
2023-12-22T03:27:23.084Z,97285.05
2023-12-22T03:29:51.156Z,97283.65
2023-12-22T03:32:19.206Z,97285.02
2023-12-22T03:34:47.395Z,97295.16
2023-12-22T03:37:15.639Z,97308.66
2023-12-22T03:39:43.871Z,97306.45
2023-12-22T03:42:12.287Z,97305.85
2023-12-22T03:44:40.417Z,97299.42
2023-12-22T03:47:08.854Z,97312.05
2023-12-22T03:49:36.808Z,97301.56
2023-12-22T03:52:06.866Z,97305.30
2023-12-22T03:54:34.858Z,97317.66
2023-12-22T03:57:03.003Z,97307.91
2023-12-22T03:59:31.064Z,97310.89
2023-12-22T04:02:02.470Z,97302.83
2023-12-22T04:04:30.649Z,97307.66
2023-12-22T04:06:58.822Z,97307.35
2023-12-22T04:09:26.804Z,97312.71
2023-12-22T04:11:54.762Z,97327.18
2023-12-22T04:14:22.926Z,97327.66
2023-12-22T04:16:52.060Z,97329.52
2023-12-22T04:19:20.320Z,97330.90
2023-12-22T04:21:48.466Z,97331.50
2023-12-22T04:24:16.518Z,97330.70
2023-12-22T04:26:44.628Z,97331.50
2023-12-22T04:29:12.813Z,97338.64
2023-12-22T04:31:41.004Z,97337.00
2023-12-22T04:34:09.116Z,97337.91
2023-12-22T04:36:37.400Z,97341.35
2023-12-22T04:39:05.392Z,97337.80
2023-12-22T04:41:33.492Z,97346.30
2023-12-22T04:44:04.561Z,97335.90
2023-12-22T04:46:32.725Z,97343.11
2023-12-22T04:49:00.852Z,97331.98
2023-12-22T04:51:28.949Z,97340.61
2023-12-22T04:53:56.922Z,97341.27
2023-12-22T04:56:25.114Z,97345.98
2023-12-22T04:58:53.197Z,97347.87
2023-12-22T05:01:22.116Z,97353.59
2023-12-22T05:03:50.340Z,97347.66
2023-12-22T05:06:18.472Z,97347.59
2023-12-22T05:08:46.487Z,97354.96
2023-12-22T05:11:14.715Z,97360.73
2023-12-22T05:13:44.211Z,97357.13
2023-12-22T05:16:12.614Z,97358.50
2023-12-22T05:18:41.294Z,97349.85
2023-12-22T05:21:09.396Z,97361.94
2023-12-22T05:23:37.851Z,97341.42
2023-12-22T05:26:06.336Z,97343.08
2023-12-22T05:28:34.501Z,97346.73
2023-12-22T05:31:02.721Z,97346.71
2023-12-22T05:33:30.882Z,97347.45
2023-12-22T05:35:59.126Z,97341.11
2023-12-22T05:38:27.306Z,97346.66
2023-12-22T05:40:55.415Z,97343.73
2023-12-22T05:43:23.850Z,97351.44
2023-12-22T05:45:52.186Z,97356.77
2023-12-22T05:48:23.342Z,97360.35
2023-12-22T05:50:51.471Z,97361.60
2023-12-22T05:53:19.595Z,97358.62
2023-12-22T05:55:47.618Z,97367.60
2023-12-22T05:58:15.741Z,97366.86
2023-12-22T06:00:44.031Z,97369.82
2023-12-22T06:03:12.289Z,97364.39
2023-12-22T06:05:40.720Z,97376.80
2023-12-22T06:08:08.948Z,97371.73
2023-12-22T06:10:37.459Z,97373.55
2023-12-22T06:13:06.975Z,97365.45
2023-12-22T06:15:35.053Z,97362.17
2023-12-22T06:18:03.320Z,97368.42
2023-12-22T06:20:31.545Z,97374.44
2023-12-22T06:23:00.107Z,97380.91
2023-12-22T06:25:28.496Z,97376.86
2023-12-22T06:27:56.572Z,97381.00
2023-12-22T06:30:25.058Z,97376.25
2023-12-22T06:32:53.361Z,97384.11
2023-12-22T06:35:25.089Z,97400.92
2023-12-22T06:37:53.512Z,97400.86
2023-12-22T06:40:22.194Z,97396.92
2023-12-22T06:42:50.316Z,97418.94
2023-12-22T06:45:18.397Z,97421.08
2023-12-22T06:47:46.732Z,97422.81
2023-12-22T06:50:15.379Z,97417.83
2023-12-22T06:52:43.740Z,97431.94
2023-12-22T06:55:12.592Z,97435.64
2023-12-22T06:57:42.767Z,97422.90
2023-12-22T07:00:12.648Z,97416.62
2023-12-22T07:02:41.074Z,97414.25
2023-12-22T07:05:25.712Z,97416.62
2023-12-22T07:07:55.312Z,97412.09
2023-12-22T07:10:23.664Z,97412.08
2023-12-22T07:12:52.127Z,97410.89
2023-12-22T07:15:21.608Z,97414.10
2023-12-22T07:17:50.989Z,97407.98
2023-12-22T07:20:19.434Z,97395.27
2023-12-22T07:22:47.578Z,97396.72
2023-12-22T07:25:15.937Z,97388.73
2023-12-22T07:27:44.163Z,97387.90
2023-12-22T07:30:17.508Z,97382.98
2023-12-22T07:32:53.778Z,97385.55
2023-12-22T07:35:22.290Z,97384.71
2023-12-22T07:37:50.707Z,97394.29
2023-12-22T07:40:18.972Z,97393.45
2023-12-22T07:42:47.190Z,97399.35
2023-12-22T07:45:15.466Z,97408.55
2023-12-22T07:47:43.888Z,97418.16
2023-12-22T07:50:12.305Z,97411.95
2023-12-22T07:52:41.847Z,97408.84
2023-12-22T07:55:12.130Z,97403.80
2023-12-22T07:57:40.546Z,97412.96
2023-12-22T08:00:10.544Z,97405.67
2023-12-22T08:02:41.944Z,97409.61
2023-12-22T08:05:10.590Z,97409.58
2023-12-22T08:07:39.389Z,97400.70
2023-12-22T08:10:07.873Z,97403.96
2023-12-22T08:12:36.860Z,97406.57
2023-12-22T08:15:05.575Z,97398.85
2023-12-22T08:17:35.055Z,97398.23
2023-12-22T08:20:10.249Z,97400.80
2023-12-22T08:22:45.502Z,97397.11
2023-12-22T08:25:16.648Z,97398.15
2023-12-22T08:27:44.874Z,97409.98
2023-12-22T08:30:13.491Z,97388.26
2023-12-22T08:32:41.911Z,97391.66
2023-12-22T08:35:10.522Z,97388.73
2023-12-22T08:37:39.152Z,97420.89
2023-12-22T08:40:10.700Z,97406.42
2023-12-22T08:42:40.533Z,97412.77
2023-12-22T08:45:09.087Z,97415.55
2023-12-22T08:47:37.343Z,97407.02
2023-12-22T08:50:09.364Z,97407.47
2023-12-22T08:52:37.751Z,97400.65
2023-12-22T08:55:06.735Z,97400.17
2023-12-22T08:57:34.777Z,97400.38
2023-12-22T09:00:03.093Z,97405.16
2023-12-22T09:02:31.357Z,97398.60
2023-12-22T09:04:59.540Z,97392.27
2023-12-22T09:07:27.764Z,97410.86
2023-12-22T09:09:55.897Z,97399.27
2023-12-22T09:12:24.254Z,97420.13
2023-12-22T09:14:52.601Z,97412.40
2023-12-22T09:17:20.957Z,97403.33
2023-12-22T09:19:49.188Z,97411.48
2023-12-22T09:22:18.430Z,97401.09
2023-12-22T09:24:46.858Z,97400.65
2023-12-22T09:27:14.935Z,97394.05
2023-12-22T09:29:43.460Z,97388.02
2023-12-22T09:32:11.716Z,97381.08
2023-12-22T09:34:40.857Z,97374.10
2023-12-22T09:37:09.100Z,97349.08
2023-12-22T09:39:37.223Z,97365.91
2023-12-22T09:42:06.879Z,97379.62
2023-12-22T09:44:37.417Z,97377.58
2023-12-22T09:47:07.115Z,97387.45
2023-12-22T09:49:36.149Z,97381.07
2023-12-22T09:52:07.732Z,97385.62
2023-12-22T09:54:37.550Z,97394.80
2023-12-22T09:57:15.095Z,97392.89
2023-12-22T09:59:53.662Z,97397.23
2023-12-22T10:02:21.951Z,97394.12
2023-12-22T10:04:50.160Z,97389.94
2023-12-22T10:07:18.871Z,97401.06
2023-12-22T10:09:49.150Z,97397.99
2023-12-22T10:12:20.424Z,97401.66
2023-12-22T10:14:49.553Z,97407.46
2023-12-22T10:17:18.474Z,97398.42
2023-12-22T10:19:46.579Z,97399.61
2023-12-22T10:22:14.611Z,97401.80
2023-12-22T10:24:52.027Z,97394.98
2023-12-22T10:27:23.777Z,97387.71
2023-12-22T10:29:56.023Z,97380.90
2023-12-22T10:32:24.615Z,97380.21
2023-12-22T10:34:54.505Z,97381.48
2023-12-22T10:37:25.206Z,97378.64
2023-12-22T10:39:56.417Z,97374.54
2023-12-22T10:42:25.414Z,97376.43
2023-12-22T10:44:55.306Z,97384.88
2023-12-22T10:47:24.584Z,97377.75
2023-12-22T10:49:52.785Z,97379.77
2023-12-22T10:52:24.249Z,97380.23
2023-12-22T10:54:52.625Z,97384.65
2023-12-22T10:57:21.924Z,97367.86
2023-12-22T10:59:57.584Z,97358.99
2023-12-22T11:02:30.829Z,97359.98
2023-12-22T11:05:07.691Z,97365.17
2023-12-22T11:07:37.539Z,97366.03
2023-12-22T11:10:08.265Z,97365.00
2023-12-22T11:12:38.616Z,97361.80
2023-12-22T11:15:08.745Z,97351.50
2023-12-22T11:17:42.142Z,97349.80
2023-12-22T11:20:15.281Z,97348.63
2023-12-22T11:22:44.206Z,97355.30
2023-12-22T11:25:16.308Z,97349.29
2023-12-22T11:27:48.307Z,97348.73
2023-12-22T11:30:18.466Z,97351.80
2023-12-22T11:32:48.354Z,97351.65
2023-12-22T11:35:18.321Z,97352.30
2023-12-22T11:37:48.258Z,97359.17
2023-12-22T11:40:16.654Z,97358.88
2023-12-22T11:42:51.403Z,97365.45
2023-12-22T11:45:21.424Z,97368.05
2023-12-22T11:47:50.243Z,97358.45
2023-12-22T11:50:45.524Z,97371.05
2023-12-22T11:53:28.689Z,97375.59
2023-12-22T11:56:11.100Z,97370.23
2023-12-22T11:59:01.589Z,97381.23
2023-12-22T12:01:31.770Z,97376.83
2023-12-22T12:04:05.201Z,97373.70
2023-12-22T12:06:35.843Z,97377.90
2023-12-22T12:09:11.183Z,97380.70
2023-12-22T12:11:59.942Z,97379.58
2023-12-22T12:14:41.232Z,97384.97
2023-12-22T12:17:11.063Z,97377.94
2023-12-22T12:19:48.515Z,97389.66
2023-12-22T12:22:17.043Z,97386.41
2023-12-22T12:24:46.651Z,97383.92
2023-12-22T12:27:20.506Z,97379.89
2023-12-22T12:29:48.743Z,97384.88
2023-12-22T12:32:16.803Z,97387.40
2023-12-22T12:34:48.100Z,97375.23
2023-12-22T12:37:17.984Z,97372.30
2023-12-22T12:39:49.498Z,97375.16
2023-12-22T12:42:18.690Z,97369.52
2023-12-22T12:44:49.233Z,97384.18
2023-12-22T12:47:18.150Z,97368.79
2023-12-22T12:49:46.744Z,97371.55
2023-12-22T12:52:16.144Z,97373.61
2023-12-22T12:54:45.925Z,97380.09
2023-12-22T12:57:17.773Z,97379.17
2023-12-22T12:59:48.366Z,97380.23
2023-12-22T13:02:20.892Z,97372.98
2023-12-22T13:04:49.144Z,97382.02
2023-12-22T13:07:28.079Z,97388.74
2023-12-22T13:09:57.705Z,97382.39
2023-12-22T13:12:27.586Z,97396.20
2023-12-22T13:14:56.247Z,97402.90
2023-12-22T13:17:24.702Z,97413.16
2023-12-22T13:19:53.464Z,97401.52
2023-12-22T13:22:21.729Z,97421.78
2023-12-22T13:24:59.006Z,97416.14
2023-12-22T13:27:27.191Z,97428.23
2023-12-22T13:29:55.578Z,97436.38
2023-12-22T13:32:25.460Z,97437.76
2023-12-22T13:34:55.677Z,97436.82
2023-12-22T13:37:28.109Z,97448.77
2023-12-22T13:39:56.673Z,97446.16
2023-12-22T13:42:25.798Z,97454.69
2023-12-22T13:44:54.653Z,97461.79
2023-12-22T13:47:25.873Z,97465.94
2023-12-22T13:49:55.622Z,97472.01
2023-12-22T13:52:36.453Z,97472.48
2023-12-22T13:55:16.734Z,97476.00
2023-12-22T13:57:46.117Z,97481.30
2023-12-22T14:00:20.247Z,97480.00
2023-12-22T14:02:50.763Z,97479.82
2023-12-22T14:05:19.523Z,97489.24
2023-12-22T14:07:50.090Z,97487.02
2023-12-22T14:10:19.940Z,97499.67
2023-12-22T14:12:48.297Z,97488.32
2023-12-22T14:15:16.715Z,97505.70
2023-12-22T14:17:44.871Z,97502.73
2023-12-22T14:20:13.792Z,97501.77
2023-12-22T14:22:42.082Z,97507.87
2023-12-22T14:25:10.380Z,97516.73
2023-12-22T14:27:38.530Z,97521.55
2023-12-22T14:30:07.722Z,97530.59
2023-12-22T14:32:35.792Z,97527.01
2023-12-22T14:35:06.484Z,97539.28
2023-12-22T14:37:35.579Z,97543.40
2023-12-22T14:40:04.333Z,97552.63
2023-12-22T14:42:36.054Z,97554.42
2023-12-22T14:45:05.277Z,97555.23
2023-12-22T14:47:33.618Z,97557.64
2023-12-22T14:50:08.001Z,97568.61
2023-12-22T14:52:36.391Z,97574.60
2023-12-22T14:55:07.975Z,97583.35
2023-12-22T14:57:36.204Z,97578.29
2023-12-22T15:00:06.836Z,97581.85
2023-12-22T15:02:36.010Z,97594.39
2023-12-22T15:05:05.611Z,97594.79
2023-12-22T15:07:34.564Z,97603.00
2023-12-22T15:10:06.956Z,97593.57
2023-12-22T15:12:38.177Z,97603.86
2023-12-22T15:15:06.843Z,97608.58
2023-12-22T15:17:36.078Z,97608.61
2023-12-22T15:20:08.475Z,97612.77
2023-12-22T15:22:38.521Z,97611.90
2023-12-22T15:25:06.935Z,97616.95
2023-12-22T15:27:37.033Z,97626.06
2023-12-22T15:30:05.795Z,97626.98
2023-12-22T15:32:34.197Z,97628.41
2023-12-22T15:35:02.433Z,97628.55
2023-12-22T15:37:32.279Z,97640.27
2023-12-22T15:40:01.599Z,97638.30
2023-12-22T15:42:29.807Z,97646.84
2023-12-22T15:44:58.071Z,97661.21
2023-12-22T15:47:26.102Z,97653.64
2023-12-22T15:49:54.146Z,97659.30
2023-12-22T15:52:22.221Z,97650.52
2023-12-22T15:54:50.258Z,97660.10
2023-12-22T15:57:18.486Z,97670.46
2023-12-22T15:59:46.578Z,97676.35
2023-12-22T16:02:14.985Z,97683.38
2023-12-22T16:04:44.094Z,97683.36
2023-12-22T16:07:12.976Z,97692.16
2023-12-22T16:09:41.001Z,97690.88
2023-12-22T16:12:09.496Z,97692.84
2023-12-22T16:14:37.816Z,97693.98
2023-12-22T16:17:06.379Z,97702.27
2023-12-22T16:19:39.816Z,97709.86
2023-12-22T16:22:08.168Z,97718.85
2023-12-22T16:24:40.842Z,97706.89
2023-12-22T16:27:08.976Z,97701.30
2023-12-22T16:29:44.569Z,97718.51
2023-12-22T16:32:13.191Z,97712.52
2023-12-22T16:34:48.337Z,97716.59
2023-12-22T16:37:17.771Z,97712.67
2023-12-22T16:39:54.133Z,97734.39
2023-12-22T16:42:22.771Z,97717.92
2023-12-22T16:44:53.126Z,97724.97
2023-12-22T16:47:21.354Z,97731.33
2023-12-22T16:49:49.787Z,97741.28
2023-12-22T16:52:18.200Z,97744.56
2023-12-22T16:54:46.453Z,97744.73
2023-12-22T16:57:15.057Z,97744.21
2023-12-22T16:59:43.709Z,97746.93
2023-12-22T17:02:27.579Z,97748.33
2023-12-22T17:05:00.670Z,97757.80
2023-12-22T17:07:32.381Z,97759.11
2023-12-22T17:10:03.642Z,97764.40
2023-12-22T17:12:31.761Z,97763.15
2023-12-22T17:15:00.883Z,97768.52
2023-12-22T17:17:29.241Z,97779.14
2023-12-22T17:19:58.490Z,97776.54
2023-12-22T17:22:28.255Z,97790.73
2023-12-22T17:24:56.533Z,97784.57
2023-12-22T17:27:24.738Z,97787.73
2023-12-22T17:29:53.288Z,97796.31
2023-12-22T17:32:21.490Z,97801.29
2023-12-22T17:34:49.542Z,97807.73
2023-12-22T17:37:17.911Z,97821.57
2023-12-22T17:39:46.092Z,97819.08
2023-12-22T17:42:14.288Z,97834.75
2023-12-22T17:44:42.549Z,97832.50
2023-12-22T17:47:11.036Z,97826.38
2023-12-22T17:49:39.536Z,97826.48
2023-12-22T17:52:07.677Z,97836.67
2023-12-22T17:54:36.135Z,97834.52
2023-12-22T17:57:05.887Z,97835.14
2023-12-22T17:59:33.989Z,97837.24
2023-12-22T18:02:02.078Z,97832.73
2023-12-22T18:04:30.195Z,97840.66
2023-12-22T18:06:59.557Z,97844.24
2023-12-22T18:09:28.075Z,97840.94
2023-12-22T18:11:56.245Z,97846.10
2023-12-22T18:14:24.542Z,97848.23
2023-12-22T18:16:52.711Z,97844.00
2023-12-22T18:19:20.962Z,97854.31
2023-12-22T18:21:49.489Z,97856.17
2023-12-22T18:24:18.994Z,97855.65
2023-12-22T18:26:47.173Z,97861.88
2023-12-22T18:29:15.548Z,97865.58
2023-12-22T18:31:43.746Z,97869.89
2023-12-22T18:34:12.089Z,97859.75
2023-12-22T18:36:41.058Z,97869.88
2023-12-22T18:39:09.668Z,97873.94
2023-12-22T18:41:37.875Z,97873.29
2023-12-22T18:44:06.121Z,97870.48
2023-12-22T18:46:34.454Z,97876.92
2023-12-22T18:49:02.824Z,97885.17
2023-12-22T18:51:31.116Z,97883.39
2023-12-22T18:53:59.308Z,97901.06
2023-12-22T18:56:27.577Z,97895.28
2023-12-22T18:58:58.110Z,97910.30
2023-12-22T19:01:35.721Z,97904.31
2023-12-22T19:04:12.521Z,97907.08
2023-12-22T19:06:41.131Z,97904.74
2023-12-22T19:09:10.828Z,97899.77
2023-12-22T19:11:39.067Z,97902.91
2023-12-22T19:14:07.207Z,97913.10
2023-12-22T19:16:35.484Z,97908.15
2023-12-22T19:19:03.720Z,97912.02
2023-12-22T19:21:31.892Z,97911.23
2023-12-22T19:24:00.357Z,97927.73
2023-12-22T19:26:28.388Z,97925.30
2023-12-22T19:28:56.585Z,97923.73
2023-12-22T19:31:29.617Z,97933.67
2023-12-22T19:33:58.509Z,97936.63
2023-12-22T19:36:26.893Z,97934.36
2023-12-22T19:38:55.064Z,97930.78
2023-12-22T19:41:24.958Z,97935.44
2023-12-22T19:43:53.349Z,97927.17
2023-12-22T19:46:22.724Z,97926.45
2023-12-22T19:48:51.006Z,97927.65
2023-12-22T19:51:19.087Z,97926.32
2023-12-22T19:53:50.261Z,97921.95
2023-12-22T19:56:18.354Z,97931.45
2023-12-22T19:58:46.465Z,97934.16
2023-12-22T20:01:14.667Z,97933.35
2023-12-22T20:03:42.974Z,97932.44
2023-12-22T20:06:12.885Z,97935.11
2023-12-22T20:08:43.983Z,97935.66
2023-12-22T20:11:17.565Z,97937.70
2023-12-22T20:13:46.015Z,97930.80
2023-12-22T20:16:14.599Z,97933.95
2023-12-22T20:18:42.943Z,97937.84
2023-12-22T20:21:13.459Z,97939.17
2023-12-22T20:23:41.534Z,97935.09
2023-12-22T20:26:09.793Z,97940.46
2023-12-22T20:28:38.940Z,97942.64
2023-12-22T20:31:07.222Z,97946.11
2023-12-22T20:33:35.594Z,97946.81
2023-12-22T20:36:04.828Z,97952.86
2023-12-22T20:38:32.931Z,97952.59
2023-12-22T20:41:01.081Z,97953.20
2023-12-22T20:43:29.200Z,97950.42
2023-12-22T20:45:57.195Z,97954.34
2023-12-22T20:48:27.545Z,97959.64
2023-12-22T20:50:55.807Z,97963.62
2023-12-22T20:53:24.489Z,97971.40
2023-12-22T20:55:52.788Z,97967.02
2023-12-22T20:58:22.509Z,97966.59
2023-12-22T21:00:51.805Z,97965.55
2023-12-22T21:03:20.140Z,97971.09
2023-12-22T21:05:49.166Z,97975.27
2023-12-22T21:08:21.634Z,97968.79
2023-12-22T21:10:49.719Z,97968.89
2023-12-22T21:13:17.957Z,97970.79
2023-12-22T21:15:46.135Z,97976.85
2023-12-22T21:18:14.545Z,97974.27
2023-12-22T21:20:42.795Z,97984.25
2023-12-22T21:23:15.448Z,97983.41
2023-12-22T21:25:44.387Z,97991.16
2023-12-22T21:28:12.718Z,97980.77
2023-12-22T21:30:40.961Z,97989.01
2023-12-22T21:33:09.119Z,97993.52
2023-12-22T21:35:37.177Z,97989.27
2023-12-22T21:38:05.459Z,97984.77
2023-12-22T21:40:33.644Z,97993.30
2023-12-22T21:43:01.906Z,97987.98
2023-12-22T21:45:31.010Z,97993.11
2023-12-22T21:47:59.158Z,97992.79
2023-12-22T21:50:27.215Z,97988.77
2023-12-22T21:52:55.225Z,97999.29
2023-12-22T21:55:23.820Z,98000.96
2023-12-22T21:57:52.205Z,98004.40
2023-12-22T22:00:20.698Z,98007.13
2023-12-22T22:02:48.843Z,97997.89
2023-12-22T22:05:17.289Z,97998.13
2023-12-22T22:07:45.733Z,98000.55
2023-12-22T22:10:13.872Z,98004.25
2023-12-22T22:16:52.011Z,97999.09
2023-12-22T22:19:20.215Z,97996.24
2023-12-22T22:21:48.870Z,98004.70
2023-12-22T22:24:16.927Z,98003.48
2023-12-22T22:26:45.087Z,98011.14
2023-12-22T22:29:14.913Z,98017.80
2023-12-22T22:31:43.497Z,98019.45
2023-12-22T22:34:12.012Z,98017.84
2023-12-22T22:36:43.892Z,98028.97
2023-12-22T22:39:11.960Z,98036.85
2023-12-22T22:41:42.750Z,98033.17
2023-12-22T22:44:11.267Z,98032.45
2023-12-22T22:46:39.868Z,98028.70
2023-12-22T22:49:12.192Z,98028.36
2023-12-22T22:51:40.382Z,98028.73
2023-12-22T22:54:08.397Z,98033.80
2023-12-22T22:56:43.092Z,98023.73
2023-12-22T22:59:14.589Z,98028.30
2023-12-22T23:01:48.042Z,98031.42
2023-12-22T23:04:16.186Z,98039.25
2023-12-22T23:06:44.427Z,98038.09
2023-12-22T23:09:13.416Z,98037.36
2023-12-22T23:11:42.270Z,98043.17
2023-12-22T23:14:10.809Z,98043.36
2023-12-22T23:16:43.076Z,98051.53
2023-12-22T23:19:11.206Z,98056.60
2023-12-22T23:21:40.246Z,98059.80
2023-12-22T23:24:08.902Z,98059.67
2023-12-22T23:26:42.705Z,98068.23
2023-12-22T23:29:10.986Z,98070.73
2023-12-22T23:31:39.154Z,98075.45
2023-12-22T23:34:07.656Z,98079.19
2023-12-22T23:36:37.351Z,98078.87
2023-12-22T23:39:07.442Z,98087.73
2023-12-22T23:41:35.842Z,98094.23
2023-12-22T23:44:04.382Z,98095.22
2023-12-22T23:46:32.613Z,98097.54
2023-12-22T23:49:00.707Z,98097.99
2023-12-22T23:51:30.465Z,98111.80
2023-12-22T23:53:59.233Z,98111.91
2023-12-22T23:56:27.701Z,98119.40
2023-12-22T23:58:56.120Z,98127.88
